sensor_id;sensor_type;location;lat;lon;timestamp;P1;durP1;ratioP1;P2;durP2;ratioP2
46745;SDS011;32493;50.514;9.678;2022-09-29T00:01:09;12.05;;;5.88;;
46745;SDS011;32493;50.514;9.678;2022-09-29T00:03:16;9.50;;;5.68;;
46745;SDS011;32493;50.514;9.678;2022-09-29T00:05:24;10.15;;;5.40;;
46745;SDS011;32493;50.514;9.678;2022-09-29T00:07:30;7.75;;;4.90;;
46745;SDS011;32493;50.514;9.678;2022-09-29T00:09:35;7.65;;;5.00;;
46745;SDS011;32493;50.514;9.678;2022-09-29T00:11:41;9.13;;;5.53;;
46745;SDS011;32493;50.514;9.678;2022-09-29T00:13:46;6.95;;;4.63;;
46745;SDS011;32493;50.514;9.678;2022-09-29T00:15:56;7.10;;;4.70;;
46745;SDS011;32493;50.514;9.678;2022-09-29T00:18:02;8.98;;;4.65;;
46745;SDS011;32493;50.514;9.678;2022-09-29T00:20:16;6.10;;;4.13;;
46745;SDS011;32493;50.514;9.678;2022-09-29T00:22:23;6.82;;;4.35;;
46745;SDS011;32493;50.514;9.678;2022-09-29T00:24:29;7.80;;;4.38;;
46745;SDS011;32493;50.514;9.678;2022-09-29T00:26:34;5.60;;;4.07;;
46745;SDS011;32493;50.514;9.678;2022-09-29T00:28:40;7.07;;;4.35;;
46745;SDS011;32493;50.514;9.678;2022-09-29T00:30:52;6.95;;;4.15;;
46745;SDS011;32493;50.514;9.678;2022-09-29T00:32:58;9.38;;;4.38;;
46745;SDS011;32493;50.514;9.678;2022-09-29T00:35:03;7.55;;;3.78;;
46745;SDS011;32493;50.514;9.678;2022-09-29T00:37:10;5.88;;;4.18;;
46745;SDS011;32493;50.514;9.678;2022-09-29T00:39:18;5.65;;;3.97;;
46745;SDS011;32493;50.514;9.678;2022-09-29T00:41:24;6.80;;;4.22;;
46745;SDS011;32493;50.514;9.678;2022-09-29T00:45:53;9.18;;;3.78;;
46745;SDS011;32493;50.514;9.678;2022-09-29T00:48:01;7.80;;;4.18;;
46745;SDS011;32493;50.514;9.678;2022-09-29T00:50:14;6.97;;;4.30;;
46745;SDS011;32493;50.514;9.678;2022-09-29T00:52:25;8.10;;;4.18;;
46745;SDS011;32493;50.514;9.678;2022-09-29T00:54:38;9.15;;;4.15;;
46745;SDS011;32493;50.514;9.678;2022-09-29T00:56:49;7.90;;;4.35;;
46745;SDS011;32493;50.514;9.678;2022-09-29T00:58:55;7.53;;;4.70;;
46745;SDS011;32493;50.514;9.678;2022-09-29T01:01:04;7.53;;;4.32;;
46745;SDS011;32493;50.514;9.678;2022-09-29T01:03:12;10.98;;;4.88;;
46745;SDS011;32493;50.514;9.678;2022-09-29T01:05:21;7.35;;;4.75;;
46745;SDS011;32493;50.514;9.678;2022-09-29T01:07:30;7.55;;;4.88;;
46745;SDS011;32493;50.514;9.678;2022-09-29T01:09:39;8.18;;;4.63;;
46745;SDS011;32493;50.514;9.678;2022-09-29T01:11:46;7.78;;;4.65;;
46745;SDS011;32493;50.514;9.678;2022-09-29T01:13:53;9.57;;;4.65;;
46745;SDS011;32493;50.514;9.678;2022-09-29T01:16:04;6.85;;;4.75;;
46745;SDS011;32493;50.514;9.678;2022-09-29T01:18:09;9.95;;;5.32;;
46745;SDS011;32493;50.514;9.678;2022-09-29T01:20:15;10.10;;;5.32;;
46745;SDS011;32493;50.514;9.678;2022-09-29T01:22:29;13.82;;;5.57;;
46745;SDS011;32493;50.514;9.678;2022-09-29T01:25:04;12.15;;;5.15;;
46745;SDS011;32493;50.514;9.678;2022-09-29T01:27:40;8.75;;;5.05;;
46745;SDS011;32493;50.514;9.678;2022-09-29T01:30:22;7.78;;;4.97;;
46745;SDS011;32493;50.514;9.678;2022-09-29T01:32:56;9.75;;;5.05;;
46745;SDS011;32493;50.514;9.678;2022-09-29T01:35:21;8.93;;;4.80;;
46745;SDS011;32493;50.514;9.678;2022-09-29T01:37:36;11.50;;;5.90;;
46745;SDS011;32493;50.514;9.678;2022-09-29T01:39:58;11.43;;;6.13;;
46745;SDS011;32493;50.514;9.678;2022-09-29T01:42:13;10.43;;;5.38;;
46745;SDS011;32493;50.514;9.678;2022-09-29T01:44:23;10.40;;;5.90;;
46745;SDS011;32493;50.514;9.678;2022-09-29T01:46:39;9.73;;;5.93;;
46745;SDS011;32493;50.514;9.678;2022-09-29T01:48:50;9.75;;;5.07;;
46745;SDS011;32493;50.514;9.678;2022-09-29T01:51:00;8.50;;;5.30;;
46745;SDS011;32493;50.514;9.678;2022-09-29T01:53:12;10.02;;;5.55;;
46745;SDS011;32493;50.514;9.678;2022-09-29T01:55:22;9.48;;;6.00;;
46745;SDS011;32493;50.514;9.678;2022-09-29T01:57:35;10.38;;;5.57;;
46745;SDS011;32493;50.514;9.678;2022-09-29T01:59:50;10.35;;;5.53;;
46745;SDS011;32493;50.514;9.678;2022-09-29T02:02:16;11.32;;;5.93;;
46745;SDS011;32493;50.514;9.678;2022-09-29T02:04:29;10.50;;;5.85;;
46745;SDS011;32493;50.514;9.678;2022-09-29T02:06:41;10.93;;;6.05;;
46745;SDS011;32493;50.514;9.678;2022-09-29T02:08:53;9.25;;;5.70;;
46745;SDS011;32493;50.514;9.678;2022-09-29T02:11:00;9.55;;;5.68;;
46745;SDS011;32493;50.514;9.678;2022-09-29T02:13:09;11.55;;;5.97;;
46745;SDS011;32493;50.514;9.678;2022-09-29T02:15:18;12.60;;;5.47;;
46745;SDS011;32493;50.514;9.678;2022-09-29T02:17:31;12.02;;;5.40;;
46745;SDS011;32493;50.514;9.678;2022-09-29T02:19:39;9.68;;;5.22;;
46745;SDS011;32493;50.514;9.678;2022-09-29T02:21:47;8.05;;;5.40;;
46745;SDS011;32493;50.514;9.678;2022-09-29T02:23:55;9.77;;;5.25;;
46745;SDS011;32493;50.514;9.678;2022-09-29T02:26:01;10.65;;;4.82;;
46745;SDS011;32493;50.514;9.678;2022-09-29T02:28:07;10.18;;;4.95;;
46745;SDS011;32493;50.514;9.678;2022-09-29T02:30:13;6.88;;;5.03;;
46745;SDS011;32493;50.514;9.678;2022-09-29T02:32:18;7.72;;;4.90;;
46745;SDS011;32493;50.514;9.678;2022-09-29T02:34:26;9.05;;;5.55;;
46745;SDS011;32493;50.514;9.678;2022-09-29T02:36:37;12.80;;;5.70;;
46745;SDS011;32493;50.514;9.678;2022-09-29T02:38:52;10.85;;;5.50;;
46745;SDS011;32493;50.514;9.678;2022-09-29T02:41:05;8.82;;;4.70;;
46745;SDS011;32493;50.514;9.678;2022-09-29T02:43:31;10.65;;;5.80;;
46745;SDS011;32493;50.514;9.678;2022-09-29T02:46:01;8.35;;;5.70;;
46745;SDS011;32493;50.514;9.678;2022-09-29T02:48:21;9.80;;;4.82;;
46745;SDS011;32493;50.514;9.678;2022-09-29T02:50:49;11.13;;;5.43;;
46745;SDS011;32493;50.514;9.678;2022-09-29T02:53:08;10.15;;;4.60;;
46745;SDS011;32493;50.514;9.678;2022-09-29T02:55:24;11.48;;;5.82;;
46745;SDS011;32493;50.514;9.678;2022-09-29T02:57:41;12.00;;;5.40;;
46745;SDS011;32493;50.514;9.678;2022-09-29T02:59:56;9.65;;;5.18;;
46745;SDS011;32493;50.514;9.678;2022-09-29T03:02:10;11.30;;;4.53;;
46745;SDS011;32493;50.514;9.678;2022-09-29T03:04:16;12.65;;;6.10;;
46745;SDS011;32493;50.514;9.678;2022-09-29T03:06:26;10.60;;;5.38;;
46745;SDS011;32493;50.514;9.678;2022-09-29T03:08:31;13.75;;;5.50;;
46745;SDS011;32493;50.514;9.678;2022-09-29T03:10:36;14.45;;;6.60;;
46745;SDS011;32493;50.514;9.678;2022-09-29T03:12:42;12.30;;;5.82;;
46745;SDS011;32493;50.514;9.678;2022-09-29T03:14:47;17.02;;;6.75;;
46745;SDS011;32493;50.514;9.678;2022-09-29T03:16:52;11.85;;;6.00;;
46745;SDS011;32493;50.514;9.678;2022-09-29T03:18:58;12.35;;;5.18;;
46745;SDS011;32493;50.514;9.678;2022-09-29T03:21:03;13.52;;;6.00;;
46745;SDS011;32493;50.514;9.678;2022-09-29T03:23:11;9.88;;;5.22;;
46745;SDS011;32493;50.514;9.678;2022-09-29T03:25:17;8.55;;;4.78;;
46745;SDS011;32493;50.514;9.678;2022-09-29T03:27:24;12.33;;;5.93;;
46745;SDS011;32493;50.514;9.678;2022-09-29T03:29:30;10.65;;;5.00;;
46745;SDS011;32493;50.514;9.678;2022-09-29T03:31:35;11.63;;;5.68;;
46745;SDS011;32493;50.514;9.678;2022-09-29T03:33:43;10.32;;;5.25;;
46745;SDS011;32493;50.514;9.678;2022-09-29T03:35:48;14.68;;;6.53;;
46745;SDS011;32493;50.514;9.678;2022-09-29T03:37:55;11.30;;;5.75;;
46745;SDS011;32493;50.514;9.678;2022-09-29T03:42:11;11.43;;;4.82;;
46745;SDS011;32493;50.514;9.678;2022-09-29T03:44:16;7.97;;;4.75;;
46745;SDS011;32493;50.514;9.678;2022-09-29T03:46:21;10.80;;;5.13;;
46745;SDS011;32493;50.514;9.678;2022-09-29T03:48:29;12.20;;;5.13;;
46745;SDS011;32493;50.514;9.678;2022-09-29T03:50:36;8.75;;;5.13;;
46745;SDS011;32493;50.514;9.678;2022-09-29T03:52:41;16.13;;;5.10;;
46745;SDS011;32493;50.514;9.678;2022-09-29T03:54:47;12.07;;;5.38;;
46745;SDS011;32493;50.514;9.678;2022-09-29T03:56:55;10.95;;;5.47;;
46745;SDS011;32493;50.514;9.678;2022-09-29T03:59:00;9.05;;;5.25;;
46745;SDS011;32493;50.514;9.678;2022-09-29T04:01:05;14.20;;;5.43;;
46745;SDS011;32493;50.514;9.678;2022-09-29T04:03:11;8.02;;;4.75;;
46745;SDS011;32493;50.514;9.678;2022-09-29T04:05:16;8.35;;;4.97;;
46745;SDS011;32493;50.514;9.678;2022-09-29T04:07:22;12.05;;;5.68;;
46745;SDS011;32493;50.514;9.678;2022-09-29T04:09:28;11.65;;;5.32;;
46745;SDS011;32493;50.514;9.678;2022-09-29T04:11:33;11.75;;;5.70;;
46745;SDS011;32493;50.514;9.678;2022-09-29T04:13:41;7.43;;;4.70;;
46745;SDS011;32493;50.514;9.678;2022-09-29T04:15:46;13.68;;;5.50;;
46745;SDS011;32493;50.514;9.678;2022-09-29T04:17:52;18.20;;;5.70;;
46745;SDS011;32493;50.514;9.678;2022-09-29T04:19:57;10.13;;;4.97;;
46745;SDS011;32493;50.514;9.678;2022-09-29T04:22:02;12.38;;;5.43;;
46745;SDS011;32493;50.514;9.678;2022-09-29T04:24:08;18.17;;;5.57;;
46745;SDS011;32493;50.514;9.678;2022-09-29T04:26:13;10.40;;;5.50;;
46745;SDS011;32493;50.514;9.678;2022-09-29T04:28:20;14.30;;;5.80;;
46745;SDS011;32493;50.514;9.678;2022-09-29T04:30:29;14.68;;;5.32;;
46745;SDS011;32493;50.514;9.678;2022-09-29T04:32:34;13.05;;;5.93;;
46745;SDS011;32493;50.514;9.678;2022-09-29T04:34:39;15.85;;;5.57;;
46745;SDS011;32493;50.514;9.678;2022-09-29T04:36:45;12.52;;;5.47;;
46745;SDS011;32493;50.514;9.678;2022-09-29T04:38:50;14.00;;;5.72;;
46745;SDS011;32493;50.514;9.678;2022-09-29T04:40:55;14.40;;;5.78;;
46745;SDS011;32493;50.514;9.678;2022-09-29T04:43:01;12.25;;;5.93;;
46745;SDS011;32493;50.514;9.678;2022-09-29T04:45:07;12.85;;;5.95;;
46745;SDS011;32493;50.514;9.678;2022-09-29T04:47:16;11.65;;;5.78;;
46745;SDS011;32493;50.514;9.678;2022-09-29T04:49:21;9.98;;;5.93;;
46745;SDS011;32493;50.514;9.678;2022-09-29T04:51:27;12.20;;;6.32;;
46745;SDS011;32493;50.514;9.678;2022-09-29T04:53:32;10.07;;;6.28;;
46745;SDS011;32493;50.514;9.678;2022-09-29T04:55:37;12.23;;;6.65;;
46745;SDS011;32493;50.514;9.678;2022-09-29T04:57:42;11.00;;;6.30;;
46745;SDS011;32493;50.514;9.678;2022-09-29T04:59:49;10.73;;;5.43;;
46745;SDS011;32493;50.514;9.678;2022-09-29T05:01:54;10.43;;;5.97;;
46745;SDS011;32493;50.514;9.678;2022-09-29T05:04:02;13.00;;;6.20;;
46745;SDS011;32493;50.514;9.678;2022-09-29T05:06:08;12.80;;;7.07;;
46745;SDS011;32493;50.514;9.678;2022-09-29T05:08:13;12.05;;;6.18;;
46745;SDS011;32493;50.514;9.678;2022-09-29T05:10:19;9.10;;;5.85;;
46745;SDS011;32493;50.514;9.678;2022-09-29T05:12:25;13.00;;;5.65;;
46745;SDS011;32493;50.514;9.678;2022-09-29T05:14:30;9.02;;;5.70;;
46745;SDS011;32493;50.514;9.678;2022-09-29T05:16:36;13.07;;;4.85;;
46745;SDS011;32493;50.514;9.678;2022-09-29T05:18:41;11.10;;;5.65;;
46745;SDS011;32493;50.514;9.678;2022-09-29T05:20:49;8.95;;;5.47;;
46745;SDS011;32493;50.514;9.678;2022-09-29T05:23:14;12.35;;;5.20;;
46745;SDS011;32493;50.514;9.678;2022-09-29T05:25:19;8.90;;;5.20;;
46745;SDS011;32493;50.514;9.678;2022-09-29T05:27:25;10.73;;;5.15;;
46745;SDS011;32493;50.514;9.678;2022-09-29T05:29:30;10.85;;;5.20;;
46745;SDS011;32493;50.514;9.678;2022-09-29T05:31:35;13.45;;;5.43;;
46745;SDS011;32493;50.514;9.678;2022-09-29T05:33:41;11.68;;;5.40;;
46745;SDS011;32493;50.514;9.678;2022-09-29T05:35:49;7.55;;;4.93;;
46745;SDS011;32493;50.514;9.678;2022-09-29T05:39:59;7.93;;;4.97;;
46745;SDS011;32493;50.514;9.678;2022-09-29T05:42:06;10.65;;;5.57;;
46745;SDS011;32493;50.514;9.678;2022-09-29T05:44:15;8.65;;;4.82;;
46745;SDS011;32493;50.514;9.678;2022-09-29T05:46:20;8.25;;;4.90;;
46745;SDS011;32493;50.514;9.678;2022-09-29T05:48:26;7.95;;;5.35;;
46745;SDS011;32493;50.514;9.678;2022-09-29T05:50:33;9.68;;;5.30;;
46745;SDS011;32493;50.514;9.678;2022-09-29T05:52:45;10.23;;;6.05;;
46745;SDS011;32493;50.514;9.678;2022-09-29T05:54:51;8.40;;;5.20;;
46745;SDS011;32493;50.514;9.678;2022-09-29T05:56:56;10.05;;;5.45;;
46745;SDS011;32493;50.514;9.678;2022-09-29T05:59:01;7.93;;;5.30;;
46745;SDS011;32493;50.514;9.678;2022-09-29T06:01:07;11.68;;;5.55;;
46745;SDS011;32493;50.514;9.678;2022-09-29T06:03:14;10.90;;;5.50;;
46745;SDS011;32493;50.514;9.678;2022-09-29T06:05:19;9.75;;;4.93;;
46745;SDS011;32493;50.514;9.678;2022-09-29T06:07:25;8.25;;;5.28;;
46745;SDS011;32493;50.514;9.678;2022-09-29T06:09:34;8.75;;;5.25;;
46745;SDS011;32493;50.514;9.678;2022-09-29T06:11:40;8.95;;;5.43;;
46745;SDS011;32493;50.514;9.678;2022-09-29T06:13:46;11.80;;;6.20;;
46745;SDS011;32493;50.514;9.678;2022-09-29T06:17:58;10.45;;;5.68;;
46745;SDS011;32493;50.514;9.678;2022-09-29T06:20:04;9.43;;;5.68;;
46745;SDS011;32493;50.514;9.678;2022-09-29T06:22:11;11.98;;;5.45;;
46745;SDS011;32493;50.514;9.678;2022-09-29T06:24:17;9.07;;;5.35;;
46745;SDS011;32493;50.514;9.678;2022-09-29T06:26:25;8.25;;;5.35;;
46745;SDS011;32493;50.514;9.678;2022-09-29T06:28:31;11.38;;;5.85;;
46745;SDS011;32493;50.514;9.678;2022-09-29T06:30:38;9.75;;;5.70;;
46745;SDS011;32493;50.514;9.678;2022-09-29T06:32:43;14.82;;;6.32;;
46745;SDS011;32493;50.514;9.678;2022-09-29T06:34:49;10.52;;;6.00;;
46745;SDS011;32493;50.514;9.678;2022-09-29T06:39:26;9.32;;;6.32;;
46745;SDS011;32493;50.514;9.678;2022-09-29T06:41:34;10.32;;;5.88;;
46745;SDS011;32493;50.514;9.678;2022-09-29T06:43:41;10.15;;;5.30;;
46745;SDS011;32493;50.514;9.678;2022-09-29T06:45:46;9.23;;;5.22;;
46745;SDS011;32493;50.514;9.678;2022-09-29T06:47:56;8.25;;;5.05;;
46745;SDS011;32493;50.514;9.678;2022-09-29T06:50:04;7.63;;;5.43;;
46745;SDS011;32493;50.514;9.678;2022-09-29T06:52:20;8.93;;;5.65;;
46745;SDS011;32493;50.514;9.678;2022-09-29T06:54:30;9.95;;;5.88;;
46745;SDS011;32493;50.514;9.678;2022-09-29T06:56:38;7.68;;;5.70;;
46745;SDS011;32493;50.514;9.678;2022-09-29T06:58:44;7.93;;;5.35;;
46745;SDS011;32493;50.514;9.678;2022-09-29T07:00:50;7.18;;;5.43;;
46745;SDS011;32493;50.514;9.678;2022-09-29T07:02:55;8.50;;;6.07;;
46745;SDS011;32493;50.514;9.678;2022-09-29T07:05:04;9.98;;;5.60;;
46745;SDS011;32493;50.514;9.678;2022-09-29T07:07:13;9.25;;;5.15;;
46745;SDS011;32493;50.514;9.678;2022-09-29T07:09:18;12.30;;;5.53;;
46745;SDS011;32493;50.514;9.678;2022-09-29T07:11:24;9.23;;;6.07;;
46745;SDS011;32493;50.514;9.678;2022-09-29T07:13:32;7.68;;;5.60;;
46745;SDS011;32493;50.514;9.678;2022-09-29T07:15:38;7.57;;;5.30;;
46745;SDS011;32493;50.514;9.678;2022-09-29T07:17:45;7.80;;;5.63;;
46745;SDS011;32493;50.514;9.678;2022-09-29T07:19:54;10.82;;;5.93;;
46745;SDS011;32493;50.514;9.678;2022-09-29T07:22:01;7.65;;;4.97;;
46745;SDS011;32493;50.514;9.678;2022-09-29T07:24:07;6.80;;;4.93;;
46745;SDS011;32493;50.514;9.678;2022-09-29T07:26:13;7.55;;;5.18;;
46745;SDS011;32493;50.514;9.678;2022-09-29T07:28:20;11.07;;;5.18;;
46745;SDS011;32493;50.514;9.678;2022-09-29T07:30:28;10.18;;;5.55;;
46745;SDS011;32493;50.514;9.678;2022-09-29T07:32:41;7.43;;;4.40;;
46745;SDS011;32493;50.514;9.678;2022-09-29T07:35:02;6.15;;;4.68;;
46745;SDS011;32493;50.514;9.678;2022-09-29T07:37:07;8.38;;;4.38;;
46745;SDS011;32493;50.514;9.678;2022-09-29T07:39:12;8.35;;;4.97;;
46745;SDS011;32493;50.514;9.678;2022-09-29T07:41:18;7.03;;;5.00;;
46745;SDS011;32493;50.514;9.678;2022-09-29T07:43:25;6.75;;;4.80;;
46745;SDS011;32493;50.514;9.678;2022-09-29T07:45:33;7.78;;;4.80;;
46745;SDS011;32493;50.514;9.678;2022-09-29T07:47:39;7.57;;;4.97;;
46745;SDS011;32493;50.514;9.678;2022-09-29T07:49:44;8.18;;;5.50;;
46745;SDS011;32493;50.514;9.678;2022-09-29T07:51:50;9.70;;;5.40;;
46745;SDS011;32493;50.514;9.678;2022-09-29T07:53:59;8.55;;;5.45;;
46745;SDS011;32493;50.514;9.678;2022-09-29T07:56:06;8.90;;;5.60;;
46745;SDS011;32493;50.514;9.678;2022-09-29T07:58:13;10.02;;;5.90;;
46745;SDS011;32493;50.514;9.678;2022-09-29T08:00:19;11.52;;;6.40;;
46745;SDS011;32493;50.514;9.678;2022-09-29T08:02:27;10.98;;;6.68;;
46745;SDS011;32493;50.514;9.678;2022-09-29T08:04:32;11.60;;;6.40;;
46745;SDS011;32493;50.514;9.678;2022-09-29T08:06:37;8.88;;;6.38;;
46745;SDS011;32493;50.514;9.678;2022-09-29T08:08:43;10.05;;;6.32;;
46745;SDS011;32493;50.514;9.678;2022-09-29T08:11:04;11.35;;;6.90;;
46745;SDS011;32493;50.514;9.678;2022-09-29T08:13:25;10.93;;;7.18;;
46745;SDS011;32493;50.514;9.678;2022-09-29T08:15:31;10.75;;;6.75;;
46745;SDS011;32493;50.514;9.678;2022-09-29T08:17:38;12.73;;;7.10;;
46745;SDS011;32493;50.514;9.678;2022-09-29T08:19:43;10.23;;;6.95;;
46745;SDS011;32493;50.514;9.678;2022-09-29T08:21:48;9.48;;;6.75;;
46745;SDS011;32493;50.514;9.678;2022-09-29T08:23:54;9.35;;;6.57;;
46745;SDS011;32493;50.514;9.678;2022-09-29T08:25:59;15.27;;;7.10;;
46745;SDS011;32493;50.514;9.678;2022-09-29T08:28:04;9.70;;;6.75;;
46745;SDS011;32493;50.514;9.678;2022-09-29T08:30:14;12.07;;;7.03;;
46745;SDS011;32493;50.514;9.678;2022-09-29T08:32:19;11.63;;;7.13;;
46745;SDS011;32493;50.514;9.678;2022-09-29T08:34:28;12.95;;;7.10;;
46745;SDS011;32493;50.514;9.678;2022-09-29T08:36:33;12.25;;;6.88;;
46745;SDS011;32493;50.514;9.678;2022-09-29T08:38:39;11.63;;;6.90;;
46745;SDS011;32493;50.514;9.678;2022-09-29T08:40:47;12.90;;;7.03;;
46745;SDS011;32493;50.514;9.678;2022-09-29T08:42:54;13.65;;;6.63;;
46745;SDS011;32493;50.514;9.678;2022-09-29T08:45:11;12.82;;;6.82;;
46745;SDS011;32493;50.514;9.678;2022-09-29T08:47:23;12.70;;;6.15;;
46745;SDS011;32493;50.514;9.678;2022-09-29T08:49:51;13.13;;;7.03;;
46745;SDS011;32493;50.514;9.678;2022-09-29T08:52:02;10.82;;;7.03;;
46745;SDS011;32493;50.514;9.678;2022-09-29T08:54:22;14.57;;;7.13;;
46745;SDS011;32493;50.514;9.678;2022-09-29T08:56:40;12.90;;;6.90;;
46745;SDS011;32493;50.514;9.678;2022-09-29T08:58:45;12.48;;;7.35;;
46745;SDS011;32493;50.514;9.678;2022-09-29T09:00:52;10.90;;;7.10;;
46745;SDS011;32493;50.514;9.678;2022-09-29T09:05:59;12.00;;;6.93;;
46745;SDS011;32493;50.514;9.678;2022-09-29T09:08:33;14.23;;;6.50;;
46745;SDS011;32493;50.514;9.678;2022-09-29T09:10:58;11.00;;;6.47;;
46745;SDS011;32493;50.514;9.678;2022-09-29T09:13:13;10.18;;;6.80;;
46745;SDS011;32493;50.514;9.678;2022-09-29T09:18:40;15.75;;;6.25;;
46745;SDS011;32493;50.514;9.678;2022-09-29T09:21:22;11.80;;;6.10;;
46745;SDS011;32493;50.514;9.678;2022-09-29T09:23:41;10.65;;;5.93;;
46745;SDS011;32493;50.514;9.678;2022-09-29T09:26:01;9.10;;;5.80;;
46745;SDS011;32493;50.514;9.678;2022-09-29T09:28:11;8.80;;;5.85;;
46745;SDS011;32493;50.514;9.678;2022-09-29T09:30:21;10.20;;;5.70;;
46745;SDS011;32493;50.514;9.678;2022-09-29T09:32:26;8.38;;;5.45;;
46745;SDS011;32493;50.514;9.678;2022-09-29T09:34:39;10.15;;;5.22;;
46745;SDS011;32493;50.514;9.678;2022-09-29T09:36:53;10.52;;;4.97;;
46745;SDS011;32493;50.514;9.678;2022-09-29T09:39:10;9.20;;;4.82;;
46745;SDS011;32493;50.514;9.678;2022-09-29T09:41:20;6.70;;;5.18;;
46745;SDS011;32493;50.514;9.678;2022-09-29T09:43:35;8.07;;;4.93;;
46745;SDS011;32493;50.514;9.678;2022-09-29T09:45:47;10.43;;;5.10;;
46745;SDS011;32493;50.514;9.678;2022-09-29T09:47:58;8.32;;;4.80;;
46745;SDS011;32493;50.514;9.678;2022-09-29T09:50:11;7.95;;;4.35;;
46745;SDS011;32493;50.514;9.678;2022-09-29T09:52:23;7.25;;;3.67;;
46745;SDS011;32493;50.514;9.678;2022-09-29T09:54:35;5.97;;;3.30;;
46745;SDS011;32493;50.514;9.678;2022-09-29T09:56:51;7.20;;;2.45;;
46745;SDS011;32493;50.514;9.678;2022-09-29T09:59:32;5.65;;;2.15;;
46745;SDS011;32493;50.514;9.678;2022-09-29T10:01:54;3.70;;;1.48;;
46745;SDS011;32493;50.514;9.678;2022-09-29T10:03:59;4.07;;;1.80;;
46745;SDS011;32493;50.514;9.678;2022-09-29T10:06:06;3.53;;;2.45;;
46745;SDS011;32493;50.514;9.678;2022-09-29T10:08:17;6.15;;;2.00;;
46745;SDS011;32493;50.514;9.678;2022-09-29T10:10:27;6.88;;;2.25;;
46745;SDS011;32493;50.514;9.678;2022-09-29T10:12:34;2.70;;;1.83;;
46745;SDS011;32493;50.514;9.678;2022-09-29T10:14:39;5.40;;;1.65;;
46745;SDS011;32493;50.514;9.678;2022-09-29T10:16:52;7.20;;;1.88;;
46745;SDS011;32493;50.514;9.678;2022-09-29T10:19:03;4.25;;;2.15;;
46745;SDS011;32493;50.514;9.678;2022-09-29T10:21:17;4.65;;;2.50;;
46745;SDS011;32493;50.514;9.678;2022-09-29T10:23:40;6.00;;;2.75;;
46745;SDS011;32493;50.514;9.678;2022-09-29T10:28:11;4.53;;;2.47;;
46745;SDS011;32493;50.514;9.678;2022-09-29T10:30:18;4.05;;;2.38;;
46745;SDS011;32493;50.514;9.678;2022-09-29T10:32:29;3.97;;;1.90;;
46745;SDS011;32493;50.514;9.678;2022-09-29T10:34:40;4.70;;;2.42;;
46745;SDS011;32493;50.514;9.678;2022-09-29T10:36:51;5.20;;;2.22;;
46745;SDS011;32493;50.514;9.678;2022-09-29T10:39:01;4.60;;;2.05;;
46745;SDS011;32493;50.514;9.678;2022-09-29T10:41:09;6.55;;;1.88;;
46745;SDS011;32493;50.514;9.678;2022-09-29T10:43:20;4.32;;;2.38;;
46745;SDS011;32493;50.514;9.678;2022-09-29T10:45:29;7.30;;;2.20;;
46745;SDS011;32493;50.514;9.678;2022-09-29T10:47:37;4.88;;;1.52;;
46745;SDS011;32493;50.514;9.678;2022-09-29T10:49:43;3.35;;;1.85;;
46745;SDS011;32493;50.514;9.678;2022-09-29T10:51:52;3.42;;;2.00;;
46745;SDS011;32493;50.514;9.678;2022-09-29T10:54:08;14.73;;;1.70;;
46745;SDS011;32493;50.514;9.678;2022-09-29T10:56:19;5.28;;;1.60;;
46745;SDS011;32493;50.514;9.678;2022-09-29T10:58:32;3.97;;;2.20;;
46745;SDS011;32493;50.514;9.678;2022-09-29T11:01:04;4.97;;;1.92;;
46745;SDS011;32493;50.514;9.678;2022-09-29T11:03:16;4.25;;;2.17;;
46745;SDS011;32493;50.514;9.678;2022-09-29T11:05:26;7.60;;;2.50;;
46745;SDS011;32493;50.514;9.678;2022-09-29T11:07:31;4.90;;;2.20;;
46745;SDS011;32493;50.514;9.678;2022-09-29T11:09:40;4.32;;;2.47;;
46745;SDS011;32493;50.514;9.678;2022-09-29T11:11:51;4.55;;;2.28;;
46745;SDS011;32493;50.514;9.678;2022-09-29T11:14:02;2.65;;;1.88;;
46745;SDS011;32493;50.514;9.678;2022-09-29T11:16:12;5.32;;;1.88;;
46745;SDS011;32493;50.514;9.678;2022-09-29T11:18:21;1.60;;;1.23;;
46745;SDS011;32493;50.514;9.678;2022-09-29T11:20:36;4.10;;;1.40;;
46745;SDS011;32493;50.514;9.678;2022-09-29T11:28:14;3.47;;;1.17;;
46745;SDS011;32493;50.514;9.678;2022-09-29T11:30:38;3.35;;;1.20;;
46745;SDS011;32493;50.514;9.678;2022-09-29T11:32:58;3.05;;;1.42;;
46745;SDS011;32493;50.514;9.678;2022-09-29T11:35:23;2.00;;;0.85;;
46745;SDS011;32493;50.514;9.678;2022-09-29T11:37:42;2.33;;;0.90;;
46745;SDS011;32493;50.514;9.678;2022-09-29T11:40:10;2.72;;;1.67;;
46745;SDS011;32493;50.514;9.678;2022-09-29T11:42:28;2.40;;;1.05;;
46745;SDS011;32493;50.514;9.678;2022-09-29T11:45:07;2.50;;;1.20;;
46745;SDS011;32493;50.514;9.678;2022-09-29T11:47:43;2.25;;;1.10;;
46745;SDS011;32493;50.514;9.678;2022-09-29T11:50:11;2.03;;;0.85;;
46745;SDS011;32493;50.514;9.678;2022-09-29T11:52:38;3.35;;;0.73;;
46745;SDS011;32493;50.514;9.678;2022-09-29T11:55:01;4.03;;;1.50;;
46745;SDS011;32493;50.514;9.678;2022-09-29T11:57:26;2.50;;;0.80;;
46745;SDS011;32493;50.514;9.678;2022-09-29T11:59:56;2.92;;;0.88;;
46745;SDS011;32493;50.514;9.678;2022-09-29T12:02:18;8.13;;;4.65;;
46745;SDS011;32493;50.514;9.678;2022-09-29T12:04:49;2.05;;;1.10;;
46745;SDS011;32493;50.514;9.678;2022-09-29T12:07:09;2.83;;;0.82;;
46745;SDS011;32493;50.514;9.678;2022-09-29T12:09:35;3.80;;;1.30;;
46745;SDS011;32493;50.514;9.678;2022-09-29T12:12:07;3.75;;;0.90;;
46745;SDS011;32493;50.514;9.678;2022-09-29T12:14:29;2.67;;;1.50;;
46745;SDS011;32493;50.514;9.678;2022-09-29T12:16:47;6.28;;;2.05;;
46745;SDS011;32493;50.514;9.678;2022-09-29T12:18:58;3.60;;;1.70;;
46745;SDS011;32493;50.514;9.678;2022-09-29T12:21:09;2.50;;;1.30;;
46745;SDS011;32493;50.514;9.678;2022-09-29T12:23:19;3.05;;;1.35;;
46745;SDS011;32493;50.514;9.678;2022-09-29T12:25:29;1.90;;;1.25;;
46745;SDS011;32493;50.514;9.678;2022-09-29T12:27:42;2.97;;;1.40;;
46745;SDS011;32493;50.514;9.678;2022-09-29T12:29:53;3.67;;;1.50;;
46745;SDS011;32493;50.514;9.678;2022-09-29T12:32:07;3.35;;;1.75;;
46745;SDS011;32493;50.514;9.678;2022-09-29T12:34:21;3.63;;;1.60;;
46745;SDS011;32493;50.514;9.678;2022-09-29T12:36:37;4.78;;;1.90;;
46745;SDS011;32493;50.514;9.678;2022-09-29T12:38:52;3.95;;;2.00;;
46745;SDS011;32493;50.514;9.678;2022-09-29T12:41:11;5.15;;;1.88;;
46745;SDS011;32493;50.514;9.678;2022-09-29T12:43:22;2.90;;;1.38;;
46745;SDS011;32493;50.514;9.678;2022-09-29T12:45:40;2.03;;;1.40;;
46745;SDS011;32493;50.514;9.678;2022-09-29T12:47:56;3.20;;;1.50;;
46745;SDS011;32493;50.514;9.678;2022-09-29T12:50:21;10.55;;;2.17;;
46745;SDS011;32493;50.514;9.678;2022-09-29T12:52:35;1.75;;;1.27;;
46745;SDS011;32493;50.514;9.678;2022-09-29T12:54:49;3.00;;;1.27;;
46745;SDS011;32493;50.514;9.678;2022-09-29T12:56:59;2.10;;;1.35;;
46745;SDS011;32493;50.514;9.678;2022-09-29T12:59:09;3.20;;;1.17;;
46745;SDS011;32493;50.514;9.678;2022-09-29T13:03:41;3.95;;;1.00;;
46745;SDS011;32493;50.514;9.678;2022-09-29T13:06:32;2.53;;;1.20;;
46745;SDS011;32493;50.514;9.678;2022-09-29T13:09:08;2.65;;;0.98;;
46745;SDS011;32493;50.514;9.678;2022-09-29T13:11:44;3.67;;;1.40;;
46745;SDS011;32493;50.514;9.678;2022-09-29T13:14:06;3.22;;;1.30;;
46745;SDS011;32493;50.514;9.678;2022-09-29T13:16:43;3.35;;;1.23;;
46745;SDS011;32493;50.514;9.678;2022-09-29T13:19:12;6.07;;;1.70;;
46745;SDS011;32493;50.514;9.678;2022-09-29T13:22:01;5.38;;;1.52;;
46745;SDS011;32493;50.514;9.678;2022-09-29T13:24:34;5.75;;;1.35;;
46745;SDS011;32493;50.514;9.678;2022-09-29T13:27:10;4.90;;;1.95;;
46745;SDS011;32493;50.514;9.678;2022-09-29T13:29:30;2.25;;;1.17;;
46745;SDS011;32493;50.514;9.678;2022-09-29T13:31:52;4.05;;;1.25;;
46745;SDS011;32493;50.514;9.678;2022-09-29T13:34:00;2.97;;;1.55;;
46745;SDS011;32493;50.514;9.678;2022-09-29T13:36:06;3.90;;;1.45;;